Airfield :







YOU CAN JOIN US ON...

 
LOGIN :

Register | Disclaimer

   EN    FR    IT 

 









Legend :    VFR   Marginal VFR   IFR   Intensive IFR   Very Intensive IFR
Visi :
Ceiling :
>= 8 km
>= 3000ft
5 to 8 km
1000 to 3000 ft
1500m to 5 km
500 to 1000 ft
800 to 1500m
200 to 500 ft
< 800m
< 200 ft
Symbols :   Thunderstorms  Fog  Heavy snow  Heavy precipitations  Wind > 20 kt






- Airport Elevation : 988 ft


KFVE - Northern Aroostook Regional

CURRENT METAR :
  • 260810Z AUTO 09010KT 4SM FZRA BR OVC002 M03/M04 A2991 RMK AO2 P0003 I1001 T10281039

EXPIRED METARs :
  • 260753Z AUTO 08009KT 5SM -FZRA BR OVC002 M03/M04 A2991 RMK AO2 FZRAB30 SLP140 P0001 I1002 T10331044
  • 260737Z AUTO 09008KT 2SM -FZRA BR OVC002 M04/M04 A2992 RMK AO2 FZRAB30 P0000 I1001 T10391044
  • 260731Z AUTO 10007KT 1 1/2SM -FZRA BR OVC002 M04/M05 A2993 RMK AO2 FZRAB30 P0000 I1001 T10391050
  • 260706Z AUTO 08007KT 1SM BR VV002 M04/M05 A2994 RMK AO2 I1000 T10391050
  • 260608Z AUTO 08007KT 3/4SM BR VV002 M04/M05 A2998 RMK AO2 I1000 T10391050
  • 260601Z AUTO 09008KT 1 1/2SM BR OVC002 M04/M05 A2998 RMK AO2 T10391050
  • 260553Z AUTO 11008KT 2 1/2SM BR OVC002 M04/M05 A2999 RMK AO2 SLP169 60000 I1001 I6001 T10391050 11028 21039 56043

TAF KFVE
Valid from the 26 at 08:00 until the 27 at 06:00 UTC


260803Z 2608/2706 12010KT 3SM -FZRAPL BR OVC004
FM261000 10009KT 2SM -FZRA OVC003
FM261200 09009KT 5SM -FZRA OVC004 WS020/15035KT
FM262200 06003KT 2SM -FZRASN OVC003
FM270300 34004KT 1SM -SN OVC006



MET'MAP, your aeronautical weather chart ! - Copyright ORBIFLY December 2007 - Disclaimer

ORBIFLY MET'MAP TEAM :

Programming & Development : Alexandra Zaïnal
Concept & original design : Baudouin d'Aumeries
Assistance for programming : Marc-Olivier Méhu
Technical & hardware support : Manuel Goepfert

Contact : metmap@orbifly.com




SOURCES & CREDITS :

   NOAA